Time;durP1;ratioP1;P1;durP2;ratioP2;P2;SDS_P1;SDS_P2;PMS_P1;PMS_P2;Temp;Humidity;BMP_temperature;BMP_pressure;BME280_temperature;BME280_humidity;BME280_pressure;Samples;Min_cycle;Max_cycle;Signal;HPM_P1;HPM_P2
2021/12/11 00:02:08;;;;;;;;;;;-0.20;99.90;;;;;;4946654;28;19978;-75
2021/12/11 00:04:48;;;;;;;;;;;-0.30;99.90;;;;;;4950597;28;19922;-75
2021/12/11 00:07:39;;;;;;;;;;;-0.30;99.90;;;;;;4944411;28;19929;-75
2021/12/11 00:13:51;;;;;;;;;;;-0.40;99.90;;;;;;4904105;29;19927;-75
2021/12/11 00:16:26;;;;;;;;;;;-0.30;99.90;;;;;;4893558;29;19976;-75
2021/12/11 00:22:08;;;;;;;;;;;-0.50;99.90;;;;;;4983134;23;19937;-75
2021/12/11 00:25:18;;;;;;;;;;;-1.50;99.90;;;;;;4935905;29;19926;-75
2021/12/11 00:28:20;;;;;;;;;;;-1.10;99.90;;;;;;4931393;28;19945;-75
2021/12/11 00:31:11;;;;;;;;;;;0.30;99.90;;;;;;4936385;29;20374;-75
2021/12/11 00:34:03;;;;;;;;;;;-0.30;99.90;;;;;;4934738;29;19928;-75
2021/12/11 00:37:12;;;;;;;;;;;-0.30;99.90;;;;;;4962739;23;20301;-76
2021/12/11 00:40:06;;;;;;;;;;;-1.60;99.90;;;;;;4930413;29;19930;-76
2021/12/11 00:43:04;;;;;;;;;;;0.70;99.90;;;;;;4924187;29;19950;-76
2021/12/11 00:46:14;;;;;;;;;;;-0.40;99.90;;;;;;4921589;29;20375;-76
2021/12/11 00:48:42;;;;;;;;;;;-0.50;99.90;;;;;;4928010;29;19929;-76
2021/12/11 00:51:21;;;;;;;;;;;-0.60;99.90;;;;;;4924734;29;19978;-76
2021/12/11 00:54:20;;;;;;;;;;;-0.60;99.90;;;;;;4929277;29;19922;-76
2021/12/11 00:57:01;;;;;;;;;;;-0.60;99.90;;;;;;4929191;29;19938;-76
2021/12/11 00:59:53;;;;;;;;;;;-0.50;99.90;;;;;;4929211;29;19922;-76
2021/12/11 01:02:23;;;;;;;;;;;-0.60;99.90;;;;;;4944249;28;20013;-76
2021/12/11 01:05:03;;;;;;;;;;;-1.30;99.90;;;;;;4930990;29;20012;-76
2021/12/11 01:07:32;;;;;;;;;;;-1.80;99.90;;;;;;4941104;29;19930;-76
2021/12/11 01:10:00;;;;;;;;;;;0.30;99.90;;;;;;4931052;29;19922;-76
2021/12/11 01:12:37;;;;;;;;;;;-0.40;99.90;;;;;;4944278;29;20378;-76
2021/12/11 01:15:13;;;;;;;;;;;1.10;99.90;;;;;;4944778;29;19923;-77
2021/12/11 01:18:03;;;;;;;;;;;-0.30;99.90;;;;;;4929009;29;19918;-76
2021/12/11 01:20:44;;;;;;;;;;;-0.30;99.90;;;;;;4929695;29;19973;-76
2021/12/11 01:23:16;;;;;;;;;;;-0.40;99.90;;;;;;4929971;29;20339;-76
2021/12/11 01:25:42;;;;;;;;;;;-0.50;99.90;;;;;;4928001;29;19919;-76
2021/12/11 01:28:08;;;;;;;;;;;-0.50;99.90;;;;;;4946587;29;19923;-76
2021/12/11 01:33:11;;;;;;;;;;;-0.60;99.90;;;;;;5064875;23;19949;-75
2021/12/11 01:35:41;;;;;;;;;;;-3.10;99.90;;;;;;4959207;28;19926;-75
2021/12/11 01:38:06;;;;;;;;;;;-1.90;99.90;;;;;;4965992;28;19928;-74
2021/12/11 01:40:35;;;;;;;;;;;-0.70;99.90;;;;;;4968688;28;19930;-75
2021/12/11 01:43:13;;;;;;;;;;;0.50;99.90;;;;;;4966109;28;19937;-76
2021/12/11 01:45:50;;;;;;;;;;;-0.40;99.90;;;;;;4968017;28;19930;-76
2021/12/11 01:48:37;;;;;;;;;;;-0.30;99.90;;;;;;4961292;28;19922;-76
2021/12/11 01:51:28;;;;;;;;;;;-0.80;99.90;;;;;;4960178;28;20339;-76
2021/12/11 01:53:59;;;;;;;;;;;-0.80;99.90;;;;;;4964242;28;20020;-76
2021/12/11 01:56:26;;;;;;;;;;;-0.70;99.90;;;;;;4961766;28;20057;-76
2021/12/11 01:59:15;;;;;;;;;;;-0.60;99.90;;;;;;4967643;28;19921;-76
2021/12/11 02:01:46;;;;;;;;;;;-0.60;99.90;;;;;;4968019;28;19935;-76
2021/12/11 02:04:13;;;;;;;;;;;-0.60;99.90;;;;;;4958593;28;19930;-76
2021/12/11 02:06:42;;;;;;;;;;;-0.60;99.90;;;;;;4965280;28;19977;-76
2021/12/11 02:09:15;;;;;;;;;;;-0.40;99.90;;;;;;4967817;28;20447;-76
2021/12/11 02:11:40;;;;;;;;;;;-0.60;99.90;;;;;;4961201;28;19922;-76
2021/12/11 02:14:07;;;;;;;;;;;-0.60;99.90;;;;;;4967873;28;19921;-76
2021/12/11 02:16:38;;;;;;;;;;;-0.60;99.90;;;;;;4965027;28;19945;-76
2021/12/11 02:19:06;;;;;;;;;;;-0.60;99.90;;;;;;4967825;28;19930;-76
2021/12/11 02:21:36;;;;;;;;;;;-0.70;99.90;;;;;;4963980;28;19926;-76
2021/12/11 02:24:03;;;;;;;;;;;-0.80;99.90;;;;;;4965158;28;19924;-76
2021/12/11 02:26:30;;;;;;;;;;;-0.90;99.90;;;;;;4966983;28;19930;-76
2021/12/11 02:28:58;;;;;;;;;;;-1.00;99.90;;;;;;4966436;28;20421;-76
2021/12/11 02:31:30;;;;;;;;;;;-1.10;99.90;;;;;;4964390;28;19922;-76
2021/12/11 02:34:07;;;;;;;;;;;-1.10;99.90;;;;;;4966040;28;20009;-76
2021/12/11 02:36:37;;;;;;;;;;;-1.00;99.90;;;;;;4964147;28;19921;-76
2021/12/11 02:39:09;;;;;;;;;;;-1.10;99.90;;;;;;4967235;28;19964;-76
2021/12/11 02:41:53;;;;;;;;;;;-1.10;99.90;;;;;;4964932;28;19922;-76
2021/12/11 02:44:39;;;;;;;;;;;-1.00;99.90;;;;;;4961609;28;19926;-75
2021/12/11 02:47:11;;;;;;;;;;;-1.00;99.90;;;;;;4956917;28;19930;-76
2021/12/11 02:49:39;;;;;;;;;;;-1.00;99.90;;;;;;4967553;28;19972;-76
2021/12/11 02:52:12;;;;;;;;;;;-1.00;99.90;;;;;;4958122;28;20386;-76
2021/12/11 02:54:51;;;;;;;;;;;-0.90;99.90;;;;;;4958380;28;20370;-76
2021/12/11 02:57:20;;;;;;;;;;;-0.90;99.90;;;;;;4966039;28;19922;-76
2021/12/11 02:59:47;;;;;;;;;;;-0.90;99.90;;;;;;4963358;28;20479;-76
2021/12/11 03:02:16;;;;;;;;;;;-0.90;99.90;;;;;;4966510;28;20660;-76
2021/12/11 03:04:51;;;;;;;;;;;-0.90;99.90;;;;;;4960574;28;20021;-76
2021/12/11 03:07:17;;;;;;;;;;;-1.00;99.90;;;;;;4963358;28;19969;-76
2021/12/11 03:09:52;;;;;;;;;;;-1.00;99.90;;;;;;4963508;28;19922;-76
2021/12/11 03:12:20;;;;;;;;;;;-1.00;99.90;;;;;;4965164;28;20020;-76
2021/12/11 03:14:46;;;;;;;;;;;-0.90;99.90;;;;;;4965920;28;19926;-76
2021/12/11 03:17:12;;;;;;;;;;;-0.90;99.90;;;;;;4965975;28;19924;-76
2021/12/11 03:19:43;;;;;;;;;;;-0.90;99.90;;;;;;4964411;28;20294;-76
2021/12/11 03:22:11;;;;;;;;;;;-0.90;99.90;;;;;;4962899;28;19929;-76
2021/12/11 03:24:37;;;;;;;;;;;-0.90;99.90;;;;;;4965286;28;19922;-76
2021/12/11 03:27:03;;;;;;;;;;;-1.00;99.90;;;;;;4966483;28;19922;-76
2021/12/11 03:29:29;;;;;;;;;;;-1.60;99.90;;;;;;4964341;28;20330;-76
2021/12/11 03:31:55;;;;;;;;;;;-1.10;99.90;;;;;;4982642;28;20341;-76
2021/12/11 03:34:23;;;;;;;;;;;-1.20;99.90;;;;;;4962924;28;19930;-75
2021/12/11 03:36:49;;;;;;;;;;;-1.40;99.90;;;;;;4965615;28;19962;-75
2021/12/11 03:39:20;;;;;;;;;;;-1.30;99.90;;;;;;4963366;28;19949;-75
2021/12/11 03:41:47;;;;;;;;;;;-1.30;99.90;;;;;;4964528;28;19926;-75
2021/12/11 03:44:13;;;;;;;;;;;-1.40;99.90;;;;;;4963695;28;20017;-75
2021/12/11 03:46:38;;;;;;;;;;;-1.20;99.90;;;;;;4965837;28;20069;-76
2021/12/11 03:49:06;;;;;;;;;;;-1.50;99.90;;;;;;4964020;28;20001;-76
2021/12/11 03:51:38;;;;;;;;;;;-1.50;99.90;;;;;;4959884;23;20291;-76
2021/12/11 03:54:06;;;;;;;;;;;-1.50;99.90;;;;;;4946647;28;19922;-76
2021/12/11 03:56:32;;;;;;;;;;;-1.50;99.90;;;;;;4947142;28;19926;-75
2021/12/11 03:58:58;;;;;;;;;;;-1.50;99.90;;;;;;4945144;28;19929;-76
2021/12/11 04:01:26;;;;;;;;;;;-1.50;99.90;;;;;;4947874;28;19922;-76
2021/12/11 04:03:55;;;;;;;;;;;-1.50;99.90;;;;;;4964756;28;20061;-76
2021/12/11 04:06:21;;;;;;;;;;;-1.50;99.90;;;;;;4951448;28;19926;-76
2021/12/11 04:08:47;;;;;;;;;;;-1.50;99.90;;;;;;4945778;28;19922;-76
2021/12/11 04:11:14;;;;;;;;;;;-1.60;99.90;;;;;;4949607;28;20373;-76
2021/12/11 04:13:43;;;;;;;;;;;-1.50;99.90;;;;;;4950449;28;19926;-76
2021/12/11 04:16:09;;;;;;;;;;;-1.50;99.90;;;;;;4948962;28;20329;-76
2021/12/11 04:18:35;;;;;;;;;;;-1.50;99.90;;;;;;4949721;28;19923;-76
2021/12/11 04:21:01;;;;;;;;;;;-1.50;99.90;;;;;;4950146;28;19944;-76
2021/12/11 04:23:27;;;;;;;;;;;-1.60;99.90;;;;;;4946693;28;19922;-75
2021/12/11 04:25:54;;;;;;;;;;;-1.60;99.90;;;;;;4947684;28;19929;-75
2021/12/11 04:28:22;;;;;;;;;;;-1.60;99.90;;;;;;4951226;28;19922;-76
2021/12/11 04:30:50;;;;;;;;;;;-1.10;99.90;;;;;;4943785;29;19922;-76
2021/12/11 04:33:16;;;;;;;;;;;-1.50;99.90;;;;;;4968001;28;19929;-76
2021/12/11 04:35:43;;;;;;;;;;;-1.60;99.90;;;;;;4948304;28;19922;-76
2021/12/11 04:38:10;;;;;;;;;;;-1.60;99.90;;;;;;4966075;28;20335;-75
2021/12/11 04:40:40;;;;;;;;;;;-1.60;99.90;;;;;;4948433;28;20286;-75
2021/12/11 04:43:11;;;;;;;;;;;-1.50;99.90;;;;;;4949482;28;19923;-75
2021/12/11 04:45:48;;;;;;;;;;;-1.60;99.90;;;;;;4948650;28;20056;-76
2021/12/11 04:48:30;;;;;;;;;;;-1.70;99.90;;;;;;4950522;28;19922;-75
2021/12/11 04:51:07;;;;;;;;;;;-1.70;99.90;;;;;;4945694;28;20421;-76
2021/12/11 04:54:03;;;;;;;;;;;-1.70;99.90;;;;;;4946122;28;19922;-75
2021/12/11 04:56:52;;;;;;;;;;;-1.80;99.90;;;;;;4946081;28;19974;-75
2021/12/11 04:59:42;;;;;;;;;;;-1.70;99.90;;;;;;4942827;28;19922;-75
2021/12/11 05:03:14;;;;;;;;;;;-1.70;99.90;;;;;;4947463;28;19971;-75
2021/12/11 05:07:43;;;;;;;;;;;-1.70;99.90;;;;;;4952461;23;20069;-75
2021/12/11 05:10:19;;;;;;;;;;;-1.60;99.90;;;;;;4931078;29;20013;-75
2021/12/11 05:12:46;;;;;;;;;;;-1.60;99.90;;;;;;4927068;29;19978;-75
2021/12/11 05:15:18;;;;;;;;;;;-1.60;99.90;;;;;;4930911;28;20013;-75
2021/12/11 05:17:46;;;;;;;;;;;-1.70;99.90;;;;;;4928055;23;19923;-75
2021/12/11 05:20:17;;;;;;;;;;;-1.70;99.90;;;;;;4949575;28;19981;-75
2021/12/11 05:22:43;;;;;;;;;;;-1.70;99.90;;;;;;4943892;28;19922;-75
2021/12/11 05:25:09;;;;;;;;;;;-1.70;99.90;;;;;;4950060;28;20400;-75
2021/12/11 05:27:35;;;;;;;;;;;-1.70;99.90;;;;;;4946507;28;19923;-75
2021/12/11 05:30:01;;;;;;;;;;;-1.60;99.90;;;;;;4949367;28;19973;-75
2021/12/11 05:32:26;;;;;;;;;;;-1.70;99.90;;;;;;4942950;29;19922;-75
2021/12/11 05:34:52;;;;;;;;;;;-1.70;99.90;;;;;;4948371;28;19934;-76
2021/12/11 05:37:18;;;;;;;;;;;-1.60;99.90;;;;;;4948513;28;19922;-76
2021/12/11 05:39:44;;;;;;;;;;;-1.50;99.90;;;;;;4946890;28;20275;-75
2021/12/11 05:42:10;;;;;;;;;;;-1.70;99.90;;;;;;4948586;28;19921;-75
2021/12/11 05:44:38;;;;;;;;;;;-1.80;99.90;;;;;;4946250;29;20363;-76
2021/12/11 05:47:04;;;;;;;;;;;-1.80;99.90;;;;;;4949202;28;19922;-76
2021/12/11 05:49:30;;;;;;;;;;;-1.80;99.90;;;;;;4946300;28;19922;-76
2021/12/11 05:51:56;;;;;;;;;;;-1.80;99.90;;;;;;4948757;28;19922;-76
2021/12/11 05:54:24;;;;;;;;;;;-1.80;99.90;;;;;;4947568;28;20337;-76
2021/12/11 05:56:56;;;;;;;;;;;-1.80;99.90;;;;;;4947798;28;19981;-76
2021/12/11 05:59:22;;;;;;;;;;;-1.80;99.90;;;;;;4947141;28;20017;-75
2021/12/11 06:01:53;;;;;;;;;;;-1.80;99.90;;;;;;4946145;28;20072;-76
2021/12/11 06:04:24;;;;;;;;;;;-1.90;99.90;;;;;;4943087;28;20342;-75
2021/12/11 06:06:50;;;;;;;;;;;-1.90;99.90;;;;;;4947862;28;20376;-75
2021/12/11 06:09:17;;;;;;;;;;;-1.70;99.90;;;;;;4964056;28;19922;-75
2021/12/11 06:11:44;;;;;;;;;;;-1.90;99.90;;;;;;4946884;28;19933;-75
2021/12/11 06:14:10;;;;;;;;;;;-1.80;99.90;;;;;;4948260;28;19949;-77
2021/12/11 06:16:35;;;;;;;;;;;-1.80;99.90;;;;;;4945776;28;19952;-77
2021/12/11 06:19:04;;;;;;;;;;;-1.80;99.90;;;;;;4946307;28;20021;-77
2021/12/11 06:21:31;;;;;;;;;;;-1.80;99.90;;;;;;4947152;28;19995;-77
2021/12/11 06:24:01;;;;;;;;;;;-1.80;99.90;;;;;;4939749;29;19957;-75
2021/12/11 06:26:26;;;;;;;;;;;-1.80;99.90;;;;;;4944421;28;19981;-76
2021/12/11 06:28:52;;;;;;;;;;;-1.70;99.90;;;;;;4938695;28;19934;-75
2021/12/11 06:31:19;;;;;;;;;;;-1.80;99.90;;;;;;4941073;28;19929;-77
2021/12/11 06:33:51;;;;;;;;;;;-1.80;99.90;;;;;;4946138;28;19954;-76
2021/12/11 06:36:21;;;;;;;;;;;-0.60;99.90;;;;;;4945498;28;20362;-77
2021/12/11 06:38:48;;;;;;;;;;;-1.80;99.90;;;;;;4945278;28;19958;-77
2021/12/11 06:41:15;;;;;;;;;;;-1.80;99.90;;;;;;4946699;28;20465;-77
2021/12/11 06:43:41;;;;;;;;;;;-1.80;99.90;;;;;;4947230;28;19922;-77
2021/12/11 06:46:07;;;;;;;;;;;-1.80;99.90;;;;;;4942185;28;19992;-77
2021/12/11 06:48:33;;;;;;;;;;;-1.80;99.90;;;;;;4937645;28;19933;-77
2021/12/11 06:50:59;;;;;;;;;;;-1.90;99.90;;;;;;4940208;28;19922;-77
2021/12/11 06:53:33;;;;;;;;;;;-1.90;99.90;;;;;;4945569;28;20285;-77
2021/12/11 06:55:58;;;;;;;;;;;-1.90;99.90;;;;;;5114840;23;20011;-76
2021/12/11 06:58:25;;;;;;;;;;;-1.90;99.90;;;;;;4964003;28;19977;-76
2021/12/11 07:00:51;;;;;;;;;;;-1.90;99.90;;;;;;4962855;28;20424;-76
2021/12/11 07:03:16;;;;;;;;;;;-1.80;99.90;;;;;;4967031;28;19930;-76
2021/12/11 07:05:42;;;;;;;;;;;-1.90;99.90;;;;;;4964590;28;19928;-76
2021/12/11 07:08:08;;;;;;;;;;;-1.90;99.90;;;;;;4964068;28;20060;-76
2021/12/11 07:10:34;;;;;;;;;;;-2.00;99.90;;;;;;4961171;28;19929;-76
2021/12/11 07:12:59;;;;;;;;;;;-1.90;99.90;;;;;;4960046;28;19922;-76
2021/12/11 07:15:25;;;;;;;;;;;-2.10;99.90;;;;;;4967172;28;19955;-76
2021/12/11 07:17:50;;;;;;;;;;;-2.10;99.90;;;;;;4963910;28;19968;-76
2021/12/11 07:20:16;;;;;;;;;;;-2.20;99.90;;;;;;4966794;28;19980;-76
2021/12/11 07:22:42;;;;;;;;;;;-2.20;99.90;;;;;;4962181;28;20016;-76
2021/12/11 07:25:23;;;;;;;;;;;-2.20;99.90;;;;;;4965245;28;19933;-76
2021/12/11 07:27:49;;;;;;;;;;;-2.20;99.90;;;;;;4965426;28;19933;-76
2021/12/11 07:30:16;;;;;;;;;;;-1.30;99.90;;;;;;4965530;28;19957;-76
2021/12/11 07:32:41;;;;;;;;;;;-2.10;99.90;;;;;;4965862;28;20016;-76
2021/12/11 07:35:08;;;;;;;;;;;-2.00;99.90;;;;;;4964912;28;19972;-76
2021/12/11 07:37:33;;;;;;;;;;;-2.20;99.90;;;;;;4968647;28;20334;-76
2021/12/11 07:39:59;;;;;;;;;;;-2.10;99.90;;;;;;4966651;28;20013;-76
2021/12/11 07:42:24;;;;;;;;;;;-2.00;99.90;;;;;;4970276;28;19984;-76
2021/12/11 07:44:50;;;;;;;;;;;-2.10;99.90;;;;;;4967988;28;19922;-76
2021/12/11 07:47:15;;;;;;;;;;;-2.10;99.90;;;;;;4969801;28;19992;-76
2021/12/11 07:49:41;;;;;;;;;;;-2.10;99.90;;;;;;4968025;28;19922;-84
2021/12/11 07:52:07;;;;;;;;;;;-2.20;99.90;;;;;;4969663;28;19930;-78
2021/12/11 07:54:32;;;;;;;;;;;-2.30;99.90;;;;;;4968914;28;19921;-78
2021/12/11 07:56:59;;;;;;;;;;;-2.30;99.90;;;;;;4963030;28;19922;-78
2021/12/11 07:59:27;;;;;;;;;;;-2.30;99.90;;;;;;4968891;28;19945;-81
2021/12/11 08:01:58;;;;;;;;;;;-2.30;99.90;;;;;;4969769;28;19924;-88
2021/12/11 08:04:24;;;;;;;;;;;-1.20;99.90;;;;;;4969420;28;19922;-85
2021/12/11 08:06:50;;;;;;;;;;;-2.30;99.90;;;;;;4979007;28;19928;-84
2021/12/11 08:09:23;;;;;;;;;;;-2.20;99.90;;;;;;4983068;28;20366;-77
2021/12/11 08:12:11;;;;;;;;;;;-2.20;99.90;;;;;;4954812;28;20009;-82
2021/12/11 08:15:07;;;;;;;;;;;-0.90;99.90;;;;;;4980218;28;19922;-80
2021/12/11 08:17:33;;;;;;;;;;;-2.20;99.90;;;;;;4970463;28;19922;-77
2021/12/11 08:20:03;;;;;;;;;;;-2.20;99.90;;;;;;4967140;28;19928;-84
2021/12/11 08:22:35;;;;;;;;;;;-2.10;99.90;;;;;;4974507;28;19926;-82
2021/12/11 08:25:27;;;;;;;;;;;-2.10;99.90;;;;;;4976035;28;19921;-83
2021/12/11 08:28:12;;;;;;;;;;;-1.70;99.90;;;;;;4964443;28;19965;-83
2021/12/11 08:30:39;;;;;;;;;;;-1.90;99.90;;;;;;4963457;28;20289;-86
2021/12/11 08:33:07;;;;;;;;;;;-1.80;99.90;;;;;;4969490;28;19984;-75
2021/12/11 08:35:33;;;;;;;;;;;-1.50;99.90;;;;;;4966199;28;19934;-75
2021/12/11 08:37:59;;;;;;;;;;;-1.10;99.90;;;;;;4968835;28;19933;-79
2021/12/11 08:40:28;;;;;;;;;;;-0.80;99.90;;;;;;4968002;28;19953;-76
2021/12/11 08:42:53;;;;;;;;;;;-0.40;99.90;;;;;;4966623;28;19979;-78
2021/12/11 08:45:23;;;;;;;;;;;0.30;99.90;;;;;;4965584;28;20289;-77
2021/12/11 08:47:53;;;;;;;;;;;0.50;99.90;;;;;;4962789;28;20382;-78
2021/12/11 08:50:20;;;;;;;;;;;1.10;99.90;;;;;;4969830;28;19996;-82
2021/12/11 08:52:49;;;;;;;;;;;1.10;99.90;;;;;;4967278;28;19929;-90
2021/12/11 08:55:26;;;;;;;;;;;1.70;99.90;;;;;;4984919;28;19922;-82
2021/12/11 09:12:32;;;;;;;;;;;4.60;99.90;;;;;;4942770;28;19966;-77
2021/12/11 09:25:42;;;;;;;;;;;4.80;99.90;;;;;;4941621;29;19918;-83
2021/12/11 10:21:15;;;;;;;;;;;3.80;99.90;;;;;;5056119;23;19928;-82
2021/12/11 10:23:42;;;;;;;;;;;4.20;99.90;;;;;;4940470;28;19926;-81
2021/12/11 10:26:12;;;;;;;;;;;5.90;99.90;;;;;;4944083;28;20577;-82
2021/12/11 10:28:43;;;;;;;;;;;7.50;99.90;;;;;;4947034;28;19926;-79
2021/12/11 10:31:11;;;;;;;;;;;8.80;99.90;;;;;;4947928;28;19926;-89
2021/12/11 10:33:47;;;;;;;;;;;10.00;99.90;;;;;;4960073;28;19986;-82
2021/12/11 10:36:13;;;;;;;;;;;10.70;99.90;;;;;;4941711;29;19931;-85
2021/12/11 10:38:45;;;;;;;;;;;11.10;99.90;;;;;;4947459;28;19926;-89
2021/12/11 10:50:23;;;;;;;;;;;12.40;99.90;;;;;;4954689;28;19965;-81
2021/12/11 11:02:56;;;;;;;;;;;11.60;99.90;;;;;;5225982;23;20370;-85
2021/12/11 11:19:05;;;;;;;;;;;9.50;99.90;;;;;;4964795;28;19916;-80
2021/12/11 11:54:12;;;;;;;;;;;15.90;98.60;;;;;;4965196;28;19918;-91
2021/12/11 12:25:02;;;;;;;;;;;13.40;99.90;;;;;;5959992;23;19921;-78
2021/12/11 13:59:14;;;;;;;;;;;7.00;99.90;;;;;;5670350;23;19981;-84
2021/12/11 17:05:41;;;;;;;;;;;3.30;99.90;;;;;;6194594;23;20002;-84
2021/12/11 18:13:00;;;;;;;;;;;;;;;;;;;;;
2021/12/11 18:16:09;;;;;;;;;;;2.20;99.90;;;;;;6231074;23;19990;-84
2021/12/11 18:18:46;;;;;;;;;;;2.60;99.90;;;;;;6200887;23;19919;-85
2021/12/11 18:21:25;;;;;;;;;;;3.00;99.90;;;;;;6199748;23;19923;-84
2021/12/11 18:23:54;;;;;;;;;;;2.70;99.90;;;;;;6190605;23;19927;-85
2021/12/11 18:26:34;;;;;;;;;;;3.30;99.90;;;;;;6188782;23;19924;-85
2021/12/11 18:29:19;;;;;;;;;;;2.50;99.90;;;;;;6186539;23;20382;-86
2021/12/11 19:19:57;;;;;;;;;;;2.80;99.90;;;;;;6214216;23;19923;-86
2021/12/11 19:26:59;;;;;;;;;;;1.30;99.90;;;;;;6213467;23;20439;-86
2021/12/11 19:29:31;;;;;;;;;;;1.80;99.90;;;;;;6189378;23;19974;-86
2021/12/11 19:35:45;;;;;;;;;;;1.80;99.90;;;;;;6188949;23;19927;-85
2021/12/11 19:40:58;;;;;;;;;;;2.30;99.90;;;;;;6216150;23;20240;-86
2021/12/11 20:07:33;;;;;;;;;;;3.30;99.90;;;;;;6215013;23;19982;-84
2021/12/11 20:19:52;;;;;;;;;;;3.00;99.90;;;;;;6188155;23;19931;-86
2021/12/11 20:32:46;;;;;;;;;;;4.20;99.90;;;;;;6215344;23;19919;-86
2021/12/11 20:36:03;;;;;;;;;;;;;;;;;;;;;
2021/12/11 20:39:12;;;;;;;;;;;3.90;99.90;;;;;;6150400;23;19915;-86
2021/12/11 20:45:10;;;;;;;;;;;4.10;99.90;;;;;;6215847;23;19958;-86
2021/12/11 20:47:59;;;;;;;;;;;3.60;99.90;;;;;;6187276;23;19924;-86
2021/12/11 20:53:33;;;;;;;;;;;3.70;99.90;;;;;;6188245;23;19920;-86
2021/12/11 20:56:18;;;;;;;;;;;3.90;99.90;;;;;;6186936;23;19959;-85
2021/12/11 21:22:56;;;;;;;;;;;4.10;99.90;;;;;;6182693;23;20226;-79
2021/12/11 21:25:50;;;;;;;;;;;4.40;99.90;;;;;;6162351;23;19920;-80
2021/12/11 21:28:20;;;;;;;;;;;4.20;99.90;;;;;;6187462;23;20058;-88
2021/12/11 21:30:54;;;;;;;;;;;4.30;99.90;;;;;;6163815;23;19954;-85
2021/12/11 21:33:27;;;;;;;;;;;4.30;99.90;;;;;;6165263;23;19927;-88
2021/12/11 22:09:53;;;;;;;;;;;4.50;99.90;;;;;;6064793;23;19965;-76
2021/12/11 22:35:08;;;;;;;;;;;5.60;99.90;;;;;;6214634;23;19919;-79
2021/12/11 22:37:49;;;;;;;;;;;4.00;99.90;;;;;;6185010;23;20511;-79
2021/12/11 22:43:57;;;;;;;;;;;4.70;99.90;;;;;;6214066;23;19919;-80
2021/12/11 22:46:48;;;;;;;;;;;4.70;99.90;;;;;;6148190;23;19935;-80
2021/12/11 22:49:20;;;;;;;;;;;5.10;99.90;;;;;;6187045;23;19920;-78
2021/12/11 23:02:33;;;;;;;;;;;4.80;99.90;;;;;;6215203;23;19922;-78
2021/12/11 23:19:22;;;;;;;;;;;4.40;99.90;;;;;;6127425;23;19956;-78
2021/12/11 23:26:11;;;;;;;;;;;4.90;99.90;;;;;;6099512;23;20000;-79
2021/12/11 23:29:10;;;;;;;;;;;4.20;99.90;;;;;;6099291;23;19921;-77
2021/12/11 23:32:01;;;;;;;;;;;5.20;99.90;;;;;;6099751;23;20359;-79
